sensor_id;sensor_type;location;lat;lon;timestamp;temperature;humidity
25963;DHT22;13760;52.588;13.406;2023-04-01T00:00:07;9.20;99.90
25963;DHT22;13760;52.588;13.406;2023-04-01T00:02:34;9.10;99.90
25963;DHT22;13760;52.588;13.406;2023-04-01T00:05:00;9.20;99.90
25963;DHT22;13760;52.588;13.406;2023-04-01T00:07:27;9.10;99.90
25963;DHT22;13760;52.588;13.406;2023-04-01T00:09:52;9.10;99.90
25963;DHT22;13760;52.588;13.406;2023-04-01T00:12:18;9.20;99.90
25963;DHT22;13760;52.588;13.406;2023-04-01T00:14:44;9.20;99.90
25963;DHT22;13760;52.588;13.406;2023-04-01T00:17:09;9.10;99.90
25963;DHT22;13760;52.588;13.406;2023-04-01T00:19:35;9.20;99.90
25963;DHT22;13760;52.588;13.406;2023-04-01T00:22:02;9.10;99.90
25963;DHT22;13760;52.588;13.406;2023-04-01T00:24:28;9.10;99.90
25963;DHT22;13760;52.588;13.406;2023-04-01T00:26:54;9.20;99.90
25963;DHT22;13760;52.588;13.406;2023-04-01T00:29:19;9.10;99.90
25963;DHT22;13760;52.588;13.406;2023-04-01T00:31:45;9.10;99.90
25963;DHT22;13760;52.588;13.406;2023-04-01T00:34:12;9.10;99.90
25963;DHT22;13760;52.588;13.406;2023-04-01T00:36:37;9.10;99.90
25963;DHT22;13760;52.588;13.406;2023-04-01T00:39:03;9.10;99.90
25963;DHT22;13760;52.588;13.406;2023-04-01T00:41:29;9.10;99.90
25963;DHT22;13760;52.588;13.406;2023-04-01T00:44:15;9.10;99.90
25963;DHT22;13760;52.588;13.406;2023-04-01T00:46:41;9.10;99.90
25963;DHT22;13760;52.588;13.406;2023-04-01T00:49:07;9.10;99.90
25963;DHT22;13760;52.588;13.406;2023-04-01T00:51:34;9.10;99.90
25963;DHT22;13760;52.588;13.406;2023-04-01T00:54:02;9.10;99.90
25963;DHT22;13760;52.588;13.406;2023-04-01T00:56:37;9.10;99.90
25963;DHT22;13760;52.588;13.406;2023-04-01T00:59:08;9.10;99.90
25963;DHT22;13760;52.588;13.406;2023-04-01T01:01:36;9.10;99.90
25963;DHT22;13760;52.588;13.406;2023-04-01T01:04:02;9.10;99.90
25963;DHT22;13760;52.588;13.406;2023-04-01T01:07:41;9.10;99.90
25963;DHT22;13760;52.588;13.406;2023-04-01T01:15:31;9.10;99.90
25963;DHT22;13760;52.588;13.406;2023-04-01T01:24:25;9.10;99.90
25963;DHT22;13760;52.588;13.406;2023-04-01T01:27:16;9.10;99.90
25963;DHT22;13760;52.588;13.406;2023-04-01T01:32:47;9.10;99.90
25963;DHT22;13760;52.588;13.406;2023-04-01T01:38:01;9.10;99.90
25963;DHT22;13760;52.588;13.406;2023-04-01T01:40:29;9.10;99.90
25963;DHT22;13760;52.588;13.406;2023-04-01T01:42:59;9.10;99.90
25963;DHT22;13760;52.588;13.406;2023-04-01T01:45:27;9.10;99.90
25963;DHT22;13760;52.588;13.406;2023-04-01T01:47:55;9.10;99.90
25963;DHT22;13760;52.588;13.406;2023-04-01T01:50:21;9.10;99.90
25963;DHT22;13760;52.588;13.406;2023-04-01T01:52:47;9.10;99.90
25963;DHT22;13760;52.588;13.406;2023-04-01T01:55:37;9.10;99.90
25963;DHT22;13760;52.588;13.406;2023-04-01T01:58:16;9.10;99.90
25963;DHT22;13760;52.588;13.406;2023-04-01T02:00:46;9.10;99.90
25963;DHT22;13760;52.588;13.406;2023-04-01T02:03:14;9.10;99.90
25963;DHT22;13760;52.588;13.406;2023-04-01T02:05:41;9.10;99.90
25963;DHT22;13760;52.588;13.406;2023-04-01T02:08:14;9.10;99.90
25963;DHT22;13760;52.588;13.406;2023-04-01T02:10:48;9.10;99.90
25963;DHT22;13760;52.588;13.406;2023-04-01T02:13:21;9.10;99.90
25963;DHT22;13760;52.588;13.406;2023-04-01T02:15:53;9.10;99.90
25963;DHT22;13760;52.588;13.406;2023-04-01T02:18:22;9.10;99.90
25963;DHT22;13760;52.588;13.406;2023-04-01T02:20:48;9.10;99.90
25963;DHT22;13760;52.588;13.406;2023-04-01T02:23:14;9.10;99.90
25963;DHT22;13760;52.588;13.406;2023-04-01T02:25:41;9.10;99.90
25963;DHT22;13760;52.588;13.406;2023-04-01T02:28:09;9.10;99.90
25963;DHT22;13760;52.588;13.406;2023-04-01T02:30:36;9.10;99.90
25963;DHT22;13760;52.588;13.406;2023-04-01T02:33:04;9.10;99.90
25963;DHT22;13760;52.588;13.406;2023-04-01T02:35:30;9.10;99.90
25963;DHT22;13760;52.588;13.406;2023-04-01T02:37:58;9.10;99.90
25963;DHT22;13760;52.588;13.406;2023-04-01T02:40:24;9.10;99.90
25963;DHT22;13760;52.588;13.406;2023-04-01T02:42:49;9.10;99.90
25963;DHT22;13760;52.588;13.406;2023-04-01T02:45:15;9.00;99.90
25963;DHT22;13760;52.588;13.406;2023-04-01T02:47:40;9.00;99.90
25963;DHT22;13760;52.588;13.406;2023-04-01T02:50:07;9.00;99.90
25963;DHT22;13760;52.588;13.406;2023-04-01T02:52:33;9.00;99.90
25963;DHT22;13760;52.588;13.406;2023-04-01T02:54:58;9.00;99.90
25963;DHT22;13760;52.588;13.406;2023-04-01T02:57:24;9.00;99.90
25963;DHT22;13760;52.588;13.406;2023-04-01T02:59:50;9.00;99.90
25963;DHT22;13760;52.588;13.406;2023-04-01T03:02:17;9.00;99.90
25963;DHT22;13760;52.588;13.406;2023-04-01T03:04:43;9.00;99.90
25963;DHT22;13760;52.588;13.406;2023-04-01T03:07:09;9.10;99.90
25963;DHT22;13760;52.588;13.406;2023-04-01T03:09:38;9.10;99.90
25963;DHT22;13760;52.588;13.406;2023-04-01T03:12:04;9.10;99.90
25963;DHT22;13760;52.588;13.406;2023-04-01T03:14:30;9.10;99.90
25963;DHT22;13760;52.588;13.406;2023-04-01T03:16:55;9.00;99.90
25963;DHT22;13760;52.588;13.406;2023-04-01T03:19:21;9.10;99.90
25963;DHT22;13760;52.588;13.406;2023-04-01T03:21:46;9.10;99.90
25963;DHT22;13760;52.588;13.406;2023-04-01T03:24:12;9.00;99.90
25963;DHT22;13760;52.588;13.406;2023-04-01T03:26:37;9.10;99.90
25963;DHT22;13760;52.588;13.406;2023-04-01T03:29:03;9.10;99.90
25963;DHT22;13760;52.588;13.406;2023-04-01T03:31:28;9.10;99.90
25963;DHT22;13760;52.588;13.406;2023-04-01T03:33:54;9.10;99.90
25963;DHT22;13760;52.588;13.406;2023-04-01T03:36:20;9.10;99.90
25963;DHT22;13760;52.588;13.406;2023-04-01T03:38:45;9.10;99.90
25963;DHT22;13760;52.588;13.406;2023-04-01T03:41:12;9.00;99.90
25963;DHT22;13760;52.588;13.406;2023-04-01T03:43:38;9.10;99.90
25963;DHT22;13760;52.588;13.406;2023-04-01T03:46:04;9.00;99.90
25963;DHT22;13760;52.588;13.406;2023-04-01T03:48:29;9.00;99.90
25963;DHT22;13760;52.588;13.406;2023-04-01T03:50:55;9.00;99.90
25963;DHT22;13760;52.588;13.406;2023-04-01T03:53:21;9.00;99.90
25963;DHT22;13760;52.588;13.406;2023-04-01T03:55:47;9.10;99.90
25963;DHT22;13760;52.588;13.406;2023-04-01T03:58:13;9.10;99.90
25963;DHT22;13760;52.588;13.406;2023-04-01T04:00:38;9.10;99.90
25963;DHT22;13760;52.588;13.406;2023-04-01T04:03:05;9.10;99.90
25963;DHT22;13760;52.588;13.406;2023-04-01T04:05:30;9.10;99.90
25963;DHT22;13760;52.588;13.406;2023-04-01T04:07:56;9.10;99.90
25963;DHT22;13760;52.588;13.406;2023-04-01T04:10:22;9.10;99.90
25963;DHT22;13760;52.588;13.406;2023-04-01T04:12:49;9.10;99.90
25963;DHT22;13760;52.588;13.406;2023-04-01T04:15:15;9.10;99.90
25963;DHT22;13760;52.588;13.406;2023-04-01T04:17:41;9.10;99.90
25963;DHT22;13760;52.588;13.406;2023-04-01T04:20:07;9.10;99.90
25963;DHT22;13760;52.588;13.406;2023-04-01T04:22:33;9.10;99.90
25963;DHT22;13760;52.588;13.406;2023-04-01T04:24:59;9.10;99.90
25963;DHT22;13760;52.588;13.406;2023-04-01T04:27:24;9.10;99.90
25963;DHT22;13760;52.588;13.406;2023-04-01T04:29:50;9.10;99.90
25963;DHT22;13760;52.588;13.406;2023-04-01T04:32:15;9.10;99.90
25963;DHT22;13760;52.588;13.406;2023-04-01T04:34:41;9.10;99.90
25963;DHT22;13760;52.588;13.406;2023-04-01T04:37:07;9.10;99.90
25963;DHT22;13760;52.588;13.406;2023-04-01T04:39:32;9.10;99.90
25963;DHT22;13760;52.588;13.406;2023-04-01T04:41:58;9.10;99.90
25963;DHT22;13760;52.588;13.406;2023-04-01T04:44:23;9.10;99.90
25963;DHT22;13760;52.588;13.406;2023-04-01T04:46:49;9.10;99.90
25963;DHT22;13760;52.588;13.406;2023-04-01T04:49:14;9.10;99.90
25963;DHT22;13760;52.588;13.406;2023-04-01T04:51:40;9.10;99.90
25963;DHT22;13760;52.588;13.406;2023-04-01T04:54:06;9.10;99.90
25963;DHT22;13760;52.588;13.406;2023-04-01T04:56:32;9.10;99.90
25963;DHT22;13760;52.588;13.406;2023-04-01T04:58:58;9.10;99.90
25963;DHT22;13760;52.588;13.406;2023-04-01T05:01:24;9.10;99.90
25963;DHT22;13760;52.588;13.406;2023-04-01T05:03:50;9.10;99.90
25963;DHT22;13760;52.588;13.406;2023-04-01T05:06:16;9.20;99.90
25963;DHT22;13760;52.588;13.406;2023-04-01T05:08:44;9.10;99.90
25963;DHT22;13760;52.588;13.406;2023-04-01T05:11:12;9.10;99.90
25963;DHT22;13760;52.588;13.406;2023-04-01T05:13:38;9.10;99.90
25963;DHT22;13760;52.588;13.406;2023-04-01T05:16:08;9.20;99.90
25963;DHT22;13760;52.588;13.406;2023-04-01T05:18:34;9.10;99.90
25963;DHT22;13760;52.588;13.406;2023-04-01T05:21:00;9.10;99.90
25963;DHT22;13760;52.588;13.406;2023-04-01T05:23:25;9.20;99.90
25963;DHT22;13760;52.588;13.406;2023-04-01T05:25:51;9.20;99.90
25963;DHT22;13760;52.588;13.406;2023-04-01T05:28:18;9.10;99.90
25963;DHT22;13760;52.588;13.406;2023-04-01T05:30:44;9.20;99.90
25963;DHT22;13760;52.588;13.406;2023-04-01T05:33:10;9.10;99.90
25963;DHT22;13760;52.588;13.406;2023-04-01T05:35:36;9.20;99.90
25963;DHT22;13760;52.588;13.406;2023-04-01T05:38:02;9.20;99.90
25963;DHT22;13760;52.588;13.406;2023-04-01T05:40:29;9.20;99.90
25963;DHT22;13760;52.588;13.406;2023-04-01T05:42:54;9.10;99.90
25963;DHT22;13760;52.588;13.406;2023-04-01T05:45:20;9.20;99.90
25963;DHT22;13760;52.588;13.406;2023-04-01T05:47:45;9.20;99.90
25963;DHT22;13760;52.588;13.406;2023-04-01T05:50:11;9.20;99.90
25963;DHT22;13760;52.588;13.406;2023-04-01T05:52:38;9.20;99.90
25963;DHT22;13760;52.588;13.406;2023-04-01T05:55:04;9.20;99.90
25963;DHT22;13760;52.588;13.406;2023-04-01T05:57:31;9.20;99.90
25963;DHT22;13760;52.588;13.406;2023-04-01T05:59:59;9.20;99.90
25963;DHT22;13760;52.588;13.406;2023-04-01T06:02:25;9.20;99.90
25963;DHT22;13760;52.588;13.406;2023-04-01T06:05:00;9.30;99.90
25963;DHT22;13760;52.588;13.406;2023-04-01T06:07:27;9.30;99.90
25963;DHT22;13760;52.588;13.406;2023-04-01T06:09:54;9.30;99.90
25963;DHT22;13760;52.588;13.406;2023-04-01T06:15:18;9.30;99.90
25963;DHT22;13760;52.588;13.406;2023-04-01T06:23:18;9.30;99.90
25963;DHT22;13760;52.588;13.406;2023-04-01T06:25:56;9.30;99.90
25963;DHT22;13760;52.588;13.406;2023-04-01T06:34:20;9.30;99.90
25963;DHT22;13760;52.588;13.406;2023-04-01T06:42:46;9.30;99.90
25963;DHT22;13760;52.588;13.406;2023-04-01T06:45:39;9.30;99.90
25963;DHT22;13760;52.588;13.406;2023-04-01T06:48:37;9.30;99.90
25963;DHT22;13760;52.588;13.406;2023-04-01T06:51:34;9.30;99.90
25963;DHT22;13760;52.588;13.406;2023-04-01T06:54:17;9.40;99.90
25963;DHT22;13760;52.588;13.406;2023-04-01T06:56:46;9.40;99.90
25963;DHT22;13760;52.588;13.406;2023-04-01T06:59:22;9.40;99.90
25963;DHT22;13760;52.588;13.406;2023-04-01T07:02:04;9.40;99.90
25963;DHT22;13760;52.588;13.406;2023-04-01T07:04:36;9.40;99.90
25963;DHT22;13760;52.588;13.406;2023-04-01T07:07:21;9.40;99.90
25963;DHT22;13760;52.588;13.406;2023-04-01T07:09:52;9.40;99.90
25963;DHT22;13760;52.588;13.406;2023-04-01T07:15:14;9.50;99.90
25963;DHT22;13760;52.588;13.406;2023-04-01T07:17:42;9.40;99.90
25963;DHT22;13760;52.588;13.406;2023-04-01T07:20:35;9.50;99.90
25963;DHT22;13760;52.588;13.406;2023-04-01T07:23:10;9.50;99.90
25963;DHT22;13760;52.588;13.406;2023-04-01T07:25:44;9.50;99.90
25963;DHT22;13760;52.588;13.406;2023-04-01T07:28:15;9.50;99.90
25963;DHT22;13760;52.588;13.406;2023-04-01T07:30:58;9.50;99.90
25963;DHT22;13760;52.588;13.406;2023-04-01T07:33:39;9.60;99.90
25963;DHT22;13760;52.588;13.406;2023-04-01T07:39:01;9.60;99.90
25963;DHT22;13760;52.588;13.406;2023-04-01T07:41:55;9.60;99.90
25963;DHT22;13760;52.588;13.406;2023-04-01T07:44:37;9.60;99.90
25963;DHT22;13760;52.588;13.406;2023-04-01T07:50:06;9.40;99.90
25963;DHT22;13760;52.588;13.406;2023-04-01T07:55:12;9.20;99.90
25963;DHT22;13760;52.588;13.406;2023-04-01T08:06:47;9.00;99.90
25963;DHT22;13760;52.588;13.406;2023-04-01T08:15:26;8.90;99.90
25963;DHT22;13760;52.588;13.406;2023-04-01T08:17:52;8.90;99.90
25963;DHT22;13760;52.588;13.406;2023-04-01T08:23:51;9.00;99.90
25963;DHT22;13760;52.588;13.406;2023-04-01T08:31:40;9.00;99.90
25963;DHT22;13760;52.588;13.406;2023-04-01T08:34:16;9.00;99.90
25963;DHT22;13760;52.588;13.406;2023-04-01T08:36:46;8.90;99.90
25963;DHT22;13760;52.588;13.406;2023-04-01T08:45:38;8.80;99.90
25963;DHT22;13760;52.588;13.406;2023-04-01T09:07:40;8.80;99.90
25963;DHT22;13760;52.588;13.406;2023-04-01T09:13:27;8.70;99.90
25963;DHT22;13760;52.588;13.406;2023-04-01T09:16:15;8.70;99.90
25963;DHT22;13760;52.588;13.406;2023-04-01T09:22:20;8.60;99.90
25963;DHT22;13760;52.588;13.406;2023-04-01T09:36:11;8.60;99.90
25963;DHT22;13760;52.588;13.406;2023-04-01T09:41:35;8.70;99.90
25963;DHT22;13760;52.588;13.406;2023-04-01T09:44:35;8.70;99.90
25963;DHT22;13760;52.588;13.406;2023-04-01T09:53:07;8.50;99.90
25963;DHT22;13760;52.588;13.406;2023-04-01T10:01:25;8.60;99.90
25963;DHT22;13760;52.588;13.406;2023-04-01T10:12:46;8.50;99.90
25963;DHT22;13760;52.588;13.406;2023-04-01T10:21:00;8.50;99.90
25963;DHT22;13760;52.588;13.406;2023-04-01T10:39:56;8.30;99.90
25963;DHT22;13760;52.588;13.406;2023-04-01T10:42:47;8.40;99.90
25963;DHT22;13760;52.588;13.406;2023-04-01T10:51:18;8.40;99.90
25963;DHT22;13760;52.588;13.406;2023-04-01T10:56:54;8.20;99.90
25963;DHT22;13760;52.588;13.406;2023-04-01T11:05:06;8.30;99.90
25963;DHT22;13760;52.588;13.406;2023-04-01T11:27:42;8.40;99.90
25963;DHT22;13760;52.588;13.406;2023-04-01T11:36:07;8.20;99.90
25963;DHT22;13760;52.588;13.406;2023-04-01T11:39:03;8.10;99.90
25963;DHT22;13760;52.588;13.406;2023-04-01T11:41:46;8.00;99.90
25963;DHT22;13760;52.588;13.406;2023-04-01T11:44:26;8.00;99.90
25963;DHT22;13760;52.588;13.406;2023-04-01T11:47:18;8.00;99.90
25963;DHT22;13760;52.588;13.406;2023-04-01T12:04:25;7.80;99.90
25963;DHT22;13760;52.588;13.406;2023-04-01T12:12:54;7.70;99.90
25963;DHT22;13760;52.588;13.406;2023-04-01T12:15:36;7.70;99.90
25963;DHT22;13760;52.588;13.406;2023-04-01T12:21:02;7.80;99.90
25963;DHT22;13760;52.588;13.406;2023-04-01T12:35:10;7.70;99.90
25963;DHT22;13760;52.588;13.406;2023-04-01T12:37:49;7.70;99.90
25963;DHT22;13760;52.588;13.406;2023-04-01T12:52:36;7.50;99.90
25963;DHT22;13760;52.588;13.406;2023-04-01T12:58:12;7.60;99.90
25963;DHT22;13760;52.588;13.406;2023-04-01T13:18:02;7.40;99.90
25963;DHT22;13760;52.588;13.406;2023-04-01T13:23:33;7.30;99.90
25963;DHT22;13760;52.588;13.406;2023-04-01T13:26:11;7.30;99.90
25963;DHT22;13760;52.588;13.406;2023-04-01T13:31:39;7.20;99.90
25963;DHT22;13760;52.588;13.406;2023-04-01T13:34:26;7.20;99.90
25963;DHT22;13760;52.588;13.406;2023-04-01T13:37:15;7.30;99.90
25963;DHT22;13760;52.588;13.406;2023-04-01T13:40:04;7.30;99.90
25963;DHT22;13760;52.588;13.406;2023-04-01T13:42:45;7.30;99.90
25963;DHT22;13760;52.588;13.406;2023-04-01T13:45:19;7.30;99.90
25963;DHT22;13760;52.588;13.406;2023-04-01T13:48:17;7.30;99.90
25963;DHT22;13760;52.588;13.406;2023-04-01T13:51:06;7.30;99.90
25963;DHT22;13760;52.588;13.406;2023-04-01T13:56:34;7.20;99.90
25963;DHT22;13760;52.588;13.406;2023-04-01T13:59:13;7.10;99.90
25963;DHT22;13760;52.588;13.406;2023-04-01T14:07:41;7.00;99.90
25963;DHT22;13760;52.588;13.406;2023-04-01T14:10:50;7.00;99.90
25963;DHT22;13760;52.588;13.406;2023-04-01T14:16:16;7.10;99.90
25963;DHT22;13760;52.588;13.406;2023-04-01T14:19:00;7.10;99.90
25963;DHT22;13760;52.588;13.406;2023-04-01T14:33:43;7.00;99.90
25963;DHT22;13760;52.588;13.406;2023-04-01T14:36:24;7.00;99.90
25963;DHT22;13760;52.588;13.406;2023-04-01T14:48:06;7.00;99.90
25963;DHT22;13760;52.588;13.406;2023-04-01T14:50:45;6.90;99.90
25963;DHT22;13760;52.588;13.406;2023-04-01T14:53:28;6.80;99.90
25963;DHT22;13760;52.588;13.406;2023-04-01T14:55:59;6.80;99.90
25963;DHT22;13760;52.588;13.406;2023-04-01T14:58:50;6.80;99.90
25963;DHT22;13760;52.588;13.406;2023-04-01T15:01:40;6.70;99.90
25963;DHT22;13760;52.588;13.406;2023-04-01T15:16:01;6.60;99.90
25963;DHT22;13760;52.588;13.406;2023-04-01T15:27:45;6.60;99.90
25963;DHT22;13760;52.588;13.406;2023-04-01T15:30:32;6.60;99.90
25963;DHT22;13760;52.588;13.406;2023-04-01T15:36:20;6.60;99.90
25963;DHT22;13760;52.588;13.406;2023-04-01T15:38:59;6.60;99.90
25963;DHT22;13760;52.588;13.406;2023-04-01T15:44:39;6.50;99.90
25963;DHT22;13760;52.588;13.406;2023-04-01T15:47:32;6.50;99.90
25963;DHT22;13760;52.588;13.406;2023-04-01T15:53:19;6.50;99.90
25963;DHT22;13760;52.588;13.406;2023-04-01T16:01:43;6.40;99.90
25963;DHT22;13760;52.588;13.406;2023-04-01T16:10:06;6.30;99.90
25963;DHT22;13760;52.588;13.406;2023-04-01T16:16:08;6.30;99.90
25963;DHT22;13760;52.588;13.406;2023-04-01T16:19:03;6.30;99.90
25963;DHT22;13760;52.588;13.406;2023-04-01T16:21:43;6.30;99.90
25963;DHT22;13760;52.588;13.406;2023-04-01T16:24:24;6.30;99.90
25963;DHT22;13760;52.588;13.406;2023-04-01T16:27:25;6.20;99.90
25963;DHT22;13760;52.588;13.406;2023-04-01T16:32:57;6.20;99.90
25963;DHT22;13760;52.588;13.406;2023-04-01T16:35:49;6.20;99.90
25963;DHT22;13760;52.588;13.406;2023-04-01T16:38:36;6.20;99.90
25963;DHT22;13760;52.588;13.406;2023-04-01T16:41:29;6.10;99.90
25963;DHT22;13760;52.588;13.406;2023-04-01T16:46:46;6.10;99.90
25963;DHT22;13760;52.588;13.406;2023-04-01T16:49:27;6.00;99.90
25963;DHT22;13760;52.588;13.406;2023-04-01T16:52:04;5.90;99.90
25963;DHT22;13760;52.588;13.406;2023-04-01T16:54:51;5.90;99.90
25963;DHT22;13760;52.588;13.406;2023-04-01T16:57:23;5.80;99.90
25963;DHT22;13760;52.588;13.406;2023-04-01T17:00:26;5.80;99.90
25963;DHT22;13760;52.588;13.406;2023-04-01T17:03:03;5.80;99.90
25963;DHT22;13760;52.588;13.406;2023-04-01T17:11:21;5.60;99.90
25963;DHT22;13760;52.588;13.406;2023-04-01T17:39:07;5.20;99.90
25963;DHT22;13760;52.588;13.406;2023-04-01T17:42:07;5.10;99.90
25963;DHT22;13760;52.588;13.406;2023-04-01T17:44:50;5.10;99.90
25963;DHT22;13760;52.588;13.406;2023-04-01T17:47:33;5.10;99.90
25963;DHT22;13760;52.588;13.406;2023-04-01T17:50:22;5.10;99.90
25963;DHT22;13760;52.588;13.406;2023-04-01T17:53:04;5.00;99.90
25963;DHT22;13760;52.588;13.406;2023-04-01T17:58:31;4.90;99.90
25963;DHT22;13760;52.588;13.406;2023-04-01T18:06:21;4.90;99.90
25963;DHT22;13760;52.588;13.406;2023-04-01T18:08:58;4.90;99.90
25963;DHT22;13760;52.588;13.406;2023-04-01T18:14:26;4.90;99.90
25963;DHT22;13760;52.588;13.406;2023-04-01T18:17:38;4.80;99.90
25963;DHT22;13760;52.588;13.406;2023-04-01T18:20:25;4.80;99.90
25963;DHT22;13760;52.588;13.406;2023-04-01T18:25:54;4.70;99.90
25963;DHT22;13760;52.588;13.406;2023-04-01T18:29:13;4.70;99.90
25963;DHT22;13760;52.588;13.406;2023-04-01T18:31:51;4.70;99.90
25963;DHT22;13760;52.588;13.406;2023-04-01T18:37:17;4.60;99.90
25963;DHT22;13760;52.588;13.406;2023-04-01T18:40:12;4.60;99.90
25963;DHT22;13760;52.588;13.406;2023-04-01T18:45:28;4.60;99.90
25963;DHT22;13760;52.588;13.406;2023-04-01T18:48:22;4.60;99.90
25963;DHT22;13760;52.588;13.406;2023-04-01T18:50:52;4.60;99.90
25963;DHT22;13760;52.588;13.406;2023-04-01T18:56:06;4.60;99.90
25963;DHT22;13760;52.588;13.406;2023-04-01T18:58:58;4.50;99.90
25963;DHT22;13760;52.588;13.406;2023-04-01T19:01:42;4.50;99.90
25963;DHT22;13760;52.588;13.406;2023-04-01T19:04:25;4.50;99.90
25963;DHT22;13760;52.588;13.406;2023-04-01T19:12:09;4.30;99.90
25963;DHT22;13760;52.588;13.406;2023-04-01T19:15:15;4.30;99.90
25963;DHT22;13760;52.588;13.406;2023-04-01T19:17:44;4.30;99.90
25963;DHT22;13760;52.588;13.406;2023-04-01T19:20:51;4.30;99.90
25963;DHT22;13760;52.588;13.406;2023-04-01T19:23:46;4.30;99.90
25963;DHT22;13760;52.588;13.406;2023-04-01T19:26:09;4.30;99.90
25963;DHT22;13760;52.588;13.406;2023-04-01T19:29:10;4.30;99.90
25963;DHT22;13760;52.588;13.406;2023-04-01T19:31:48;4.20;99.90
25963;DHT22;13760;52.588;13.406;2023-04-01T19:37:23;4.20;99.90
25963;DHT22;13760;52.588;13.406;2023-04-01T19:48:29;4.10;99.90
25963;DHT22;13760;52.588;13.406;2023-04-01T19:51:03;4.00;99.90
25963;DHT22;13760;52.588;13.406;2023-04-01T19:56:19;4.00;99.90
25963;DHT22;13760;52.588;13.406;2023-04-01T20:01:51;4.00;99.90
25963;DHT22;13760;52.588;13.406;2023-04-01T20:04:30;4.00;99.90
25963;DHT22;13760;52.588;13.406;2023-04-01T20:07:06;3.90;99.90
25963;DHT22;13760;52.588;13.406;2023-04-01T20:12:27;3.90;99.90
25963;DHT22;13760;52.588;13.406;2023-04-01T20:15:02;3.90;99.90
25963;DHT22;13760;52.588;13.406;2023-04-01T20:17:42;3.80;99.90
25963;DHT22;13760;52.588;13.406;2023-04-01T20:25:23;3.80;99.90
25963;DHT22;13760;52.588;13.406;2023-04-01T20:28:05;3.70;99.90
25963;DHT22;13760;52.588;13.406;2023-04-01T20:31:06;3.70;99.90
25963;DHT22;13760;52.588;13.406;2023-04-01T20:34:02;3.70;99.90
25963;DHT22;13760;52.588;13.406;2023-04-01T20:39:52;3.70;99.90
25963;DHT22;13760;52.588;13.406;2023-04-01T20:48:11;3.60;99.90
25963;DHT22;13760;52.588;13.406;2023-04-01T20:50:50;3.60;99.90
25963;DHT22;13760;52.588;13.406;2023-04-01T21:02:08;3.50;99.90
25963;DHT22;13760;52.588;13.406;2023-04-01T21:10:41;3.50;99.90
25963;DHT22;13760;52.588;13.406;2023-04-01T21:13:33;3.50;99.90
25963;DHT22;13760;52.588;13.406;2023-04-01T21:30:35;3.30;99.90
25963;DHT22;13760;52.588;13.406;2023-04-01T21:36:52;3.30;99.90
25963;DHT22;13760;52.588;13.406;2023-04-01T21:39:47;3.20;99.90
25963;DHT22;13760;52.588;13.406;2023-04-01T21:45:25;3.30;99.90
25963;DHT22;13760;52.588;13.406;2023-04-01T21:48:12;3.30;99.90
25963;DHT22;13760;52.588;13.406;2023-04-01T21:50:44;3.20;99.90
25963;DHT22;13760;52.588;13.406;2023-04-01T22:07:40;3.20;99.90
25963;DHT22;13760;52.588;13.406;2023-04-01T22:10:24;3.20;99.90
25963;DHT22;13760;52.588;13.406;2023-04-01T22:12:56;3.20;99.90
25963;DHT22;13760;52.588;13.406;2023-04-01T22:15:31;3.20;99.90
25963;DHT22;13760;52.588;13.406;2023-04-01T22:18:15;3.20;99.90
25963;DHT22;13760;52.588;13.406;2023-04-01T22:21:17;3.20;99.90
25963;DHT22;13760;52.588;13.406;2023-04-01T22:29:25;3.10;99.90
25963;DHT22;13760;52.588;13.406;2023-04-01T22:32:08;3.10;99.90
25963;DHT22;13760;52.588;13.406;2023-04-01T22:34:52;3.10;99.90
25963;DHT22;13760;52.588;13.406;2023-04-01T22:40:25;3.10;99.90
25963;DHT22;13760;52.588;13.406;2023-04-01T22:43:01;3.10;99.90
25963;DHT22;13760;52.588;13.406;2023-04-01T22:45:49;3.10;99.90
25963;DHT22;13760;52.588;13.406;2023-04-01T22:48:31;3.00;99.90
25963;DHT22;13760;52.588;13.406;2023-04-01T22:51:15;3.00;99.90
25963;DHT22;13760;52.588;13.406;2023-04-01T22:56:15;3.00;99.90
25963;DHT22;13760;52.588;13.406;2023-04-01T22:59:00;3.00;99.90
25963;DHT22;13760;52.588;13.406;2023-04-01T23:01:31;3.00;99.90
25963;DHT22;13760;52.588;13.406;2023-04-01T23:03:59;3.00;99.90
25963;DHT22;13760;52.588;13.406;2023-04-01T23:06:27;3.00;99.90
25963;DHT22;13760;52.588;13.406;2023-04-01T23:11:43;3.00;99.90
25963;DHT22;13760;52.588;13.406;2023-04-01T23:17:02;3.00;99.90
25963;DHT22;13760;52.588;13.406;2023-04-01T23:19:37;3.00;99.90
25963;DHT22;13760;52.588;13.406;2023-04-01T23:22:28;2.90;99.90
25963;DHT22;13760;52.588;13.406;2023-04-01T23:27:29;2.90;99.90
25963;DHT22;13760;52.588;13.406;2023-04-01T23:29:55;2.90;99.90
25963;DHT22;13760;52.588;13.406;2023-04-01T23:32:25;2.90;99.90
25963;DHT22;13760;52.588;13.406;2023-04-01T23:34:57;2.80;99.90
25963;DHT22;13760;52.588;13.406;2023-04-01T23:37:24;2.90;99.90
25963;DHT22;13760;52.588;13.406;2023-04-01T23:39:53;2.90;99.90
25963;DHT22;13760;52.588;13.406;2023-04-01T23:44:51;2.80;99.90
25963;DHT22;13760;52.588;13.406;2023-04-01T23:47:52;2.80;99.90
25963;DHT22;13760;52.588;13.406;2023-04-01T23:50:14;2.80;99.90
25963;DHT22;13760;52.588;13.406;2023-04-01T23:52:51;2.80;99.90
25963;DHT22;13760;52.588;13.406;2023-04-01T23:55:22;2.80;99.90
25963;DHT22;13760;52.588;13.406;2023-04-01T23:58:16;2.80;99.90
